WetterOnline ( https://www.wetteronline.de )

Wetter aktuell Harbke

Aktuelles Wetter: Magdeburg (85m)

6-stündlich | Neueste Meldungen
Ortszeit Temperatur Wetter
Sa, 31.10. 19:00 14.3° C bedeckt
Sa, 31.10. 13:00 16.4° C wolkig
Sa, 31.10. 7:00 13.4° C bewölkt
Sa, 31.10. 1:00 14.2° C bedeckt
Fr, 30.10. 19:00 14.1° C leichter Regen
Fr, 30.10. 13:00 14.1° C Sprühregen
Fr, 30.10. 7:00 10.8° C Regen
Fr, 30.10. 1:00 9.0° C Regen
Ortszeit Temperatur Wetter
Sa, 31.10. 19:30 14.4° C bedeckt
Sa, 31.10. 19:20 14.4° C bedeckt
Sa, 31.10. 19:10 14.6° C bedeckt
Sa, 31.10. 19:00 14.3° C bedeckt
Sa, 31.10. 18:50 14.3° C bedeckt
Sa, 31.10. 18:40 14.3° C bedeckt
Sa, 31.10. 18:30 14.3° C bedeckt
Sa, 31.10. 18:00 14.2° C bedeckt
Sa, 31.10. 17:30 14.0° C wolkig
Sa, 31.10. 17:00 14.2° C wolkenlos
Sa, 31.10. 16:30 15.4° C wolkig
Ortszeit Relative Feuchte Sichtweite
Sa, 31.10. 19:00 89% 40 km
Sa, 31.10. 13:00 81% 50 km
Sa, 31.10. 7:00 96% 9 km
Sa, 31.10. 1:00 86% 45 km
Fr, 30.10. 19:00 91% 35 km
Fr, 30.10. 13:00 90% 13 km
Fr, 30.10. 7:00 94% >70 km
Fr, 30.10. 1:00 88% 22 km
Ortszeit Relative Feuchte Sichtweite
Sa, 31.10. 19:30 80% 60 km
Sa, 31.10. 19:20 80% -
Sa, 31.10. 19:10 81% -
Sa, 31.10. 19:00 89% 40 km
Sa, 31.10. 18:50 89% -
Sa, 31.10. 18:40 89% -
Sa, 31.10. 18:30 90% 40 km
Sa, 31.10. 18:00 90% 40 km
Sa, 31.10. 17:30 89% 50 km
Sa, 31.10. 17:00 87% >70 km
Sa, 31.10. 16:30 85% 65 km
Ortszeit Niederschlagsmenge Niederschlagsart
Sa, 31.10. 19:00 0.1 l/m2 in 12 Std. -
Sa, 31.10. 13:00 0.1 l/m2 in 6 Std. Regen
Sa, 31.10. 7:00 0.1 l/m2 in 12 Std. Sprühregen, Niederschlag
Sa, 31.10. 1:00 0.1 l/m2 in 6 Std. Regen
Fr, 30.10. 19:00 1 l/m2 in 12 Std. Regen
Fr, 30.10. 13:00 0.2 l/m2 in 6 Std. Regen
Fr, 30.10. 7:00 4 l/m2 in 12 Std. Regen
Fr, 30.10. 1:00 0.4 l/m2 in 6 Std. Regen
Ortszeit Niederschlagsmenge Niederschlagsart
Sa, 31.10. 19:30 0.0 l/m2 in 1 Std. -
Sa, 31.10. 19:20 keine Meldung -
Sa, 31.10. 19:10 keine Meldung -
Sa, 31.10. 19:00 0.0 l/m2 in 1 Std. -
Sa, 31.10. 18:50 keine Meldung -
Sa, 31.10. 18:40 keine Meldung -
Sa, 31.10. 18:30 0.0 l/m2 in 1 Std. -
Sa, 31.10. 18:00 0.0 l/m2 in 1 Std. -
Sa, 31.10. 17:30 0.0 l/m2 in 1 Std. -
Sa, 31.10. 17:00 0.0 l/m2 in 1 Std. -
Sa, 31.10. 16:30 0.0 l/m2 in 1 Std. -
Ortszeit Stärke Spitze Richtung
km/h Bft. km/h Grad Sektor
Sa, 31.10. 19:00 9 2 24 170° S
Sa, 31.10. 13:00 7 2 22 220° SW
Sa, 31.10. 7:00 9 2 22 260° W
Sa, 31.10. 1:00 13 3 31 270° W
Fr, 30.10. 19:00 18 3 40 270° W
Fr, 30.10. 13:00 18 3 40 260° W
Fr, 30.10. 7:00 11 2 25 220° SW
Fr, 30.10. 1:00 9 2 22 200° S
Ortszeit Stärke Spitze Richtung
km/h Bft. km/h Grad Sektor
Sa, 31.10. 19:30 14 3 29 170° S
Sa, 31.10. 19:20 14 3 - 170° S
Sa, 31.10. 19:10 15 3 - 170° S
Sa, 31.10. 19:00 9 2 19 170° S
Sa, 31.10. 18:50 9 2 - 170° S
Sa, 31.10. 18:40 11 2 - 170° S
Sa, 31.10. 18:30 7 2 14 160° S
Sa, 31.10. 18:00 9 2 17 170° S
Sa, 31.10. 17:30 7 2 14 160° S
Sa, 31.10. 17:00 9 2 24 160° S
Sa, 31.10. 16:30 7 2 25 160° S
Ortszeit Untergrenze Bedeckung Gattung
total tief tief mittel hoch
Sa, 31.10. 19:00 600 m 8/8 8/8 - - -
Sa, 31.10. 13:00 420 m 6/8 6/8 - - -
Sa, 31.10. 7:00 360 m 7/8 7/8 - - -
Sa, 31.10. 1:00 540 m 8/8 8/8 - - -
Fr, 30.10. 19:00 360 m 8/8 8/8 - - -
Fr, 30.10. 13:00 930 m 7/8 8/8 - - -
Fr, 30.10. 7:00 1080 m 8/8 7/8 - - -
Fr, 30.10. 1:00 1080 m 8/8 8/8 - - -
Ortszeit Bedeckungsgrad in Achtel und Wolkenuntergrenze
Sa, 31.10. 19:30 8(630m)
Sa, 31.10. 19:20 8(630m)
Sa, 31.10. 19:10 8(630m)
Sa, 31.10. 19:00 8(600m)
Sa, 31.10. 18:50 8(600m)
Sa, 31.10. 18:40 8(630m)
Sa, 31.10. 18:30 8(660m)
Sa, 31.10. 18:00 8(660m)
Sa, 31.10. 17:30 6(690m)
Sa, 31.10. 17:00 keine Wolken
Sa, 31.10. 16:30 5(570m)
Ortszeit Luftdruck NN (hPa) Tendenz (hPa in 3 Std.)
Sa, 31.10. 19:00 1018 - 1,1
Sa, 31.10. 13:00 1021 - 1,4
Sa, 31.10. 7:00 1022 + 1,0
Sa, 31.10. 1:00 1021 + 1,1
Fr, 30.10. 19:00 1019 + 1,6
Fr, 30.10. 13:00 1016 + 0,4
Fr, 30.10. 7:00 1014 - 0,7
Fr, 30.10. 1:00 1017 - 1,3
Ortszeit Luftdruck NN (hPa) Tendenz (hPa in 3 Std.)
Sa, 31.10. 19:30 1018 - 1,3
Sa, 31.10. 19:20 1018 keine Meldung
Sa, 31.10. 19:10 1018 keine Meldung
Sa, 31.10. 19:00 1018 - 1,1
Sa, 31.10. 18:50 1018 keine Meldung
Sa, 31.10. 18:40 1018 keine Meldung
Sa, 31.10. 18:30 1019 - 1,3
Sa, 31.10. 18:00 1019 - 1,2
Sa, 31.10. 17:30 1019 - 1,3
Sa, 31.10. 17:00 1019 - 1,7
Sa, 31.10. 16:30 1019 - 1,9
Ortszeit Schneehöhe (cm)
Sa, 31.10. 19:00 0
Sa, 31.10. 13:00 0
Sa, 31.10. 7:00 0
Sa, 31.10. 1:00 0
Fr, 30.10. 19:00 0
Fr, 30.10. 13:00 0
Fr, 30.10. 7:00 0
Fr, 30.10. 1:00 0
Ortszeit Schneehöhe (cm)
Sa, 31.10. 19:30 0
Sa, 31.10. 19:20 0
Sa, 31.10. 19:10 0
Sa, 31.10. 19:00 0
Sa, 31.10. 18:50 0
Sa, 31.10. 18:40 0
Sa, 31.10. 18:30 0
Sa, 31.10. 18:00 0
Sa, 31.10. 17:30 0
Sa, 31.10. 17:00 0
Sa, 31.10. 16:30 0
Link zu dieser Seite / Seite empfehlen

Das Wetter in ...